createdAt,value
2018-02-18T00:00:33.972Z,8.90
2018-02-18T00:03:01.487Z,8.87
2018-02-18T00:05:28.992Z,8.73
2018-02-18T00:07:56.515Z,8.90
2018-02-18T00:10:24.035Z,9.50
2018-02-18T00:12:51.553Z,8.93
2018-02-18T00:15:19.835Z,9.50
2018-02-18T00:17:48.111Z,8.60
2018-02-18T00:20:16.391Z,10.63
2018-02-18T00:22:44.684Z,9.90
2018-02-18T00:25:12.207Z,9.93
2018-02-18T00:27:39.731Z,9.17
2018-02-18T00:30:07.234Z,8.87
2018-02-18T00:32:35.531Z,9.70
2018-02-18T00:35:03.803Z,8.97
2018-02-18T00:37:32.109Z,10.50
2018-02-18T00:39:59.622Z,10.97
2018-02-18T00:42:27.146Z,9.23
2018-02-18T00:44:54.677Z,10.30
2018-02-18T00:47:22.189Z,9.50
2018-02-18T00:49:49.711Z,8.83
2018-02-18T00:52:17.223Z,10.20
2018-02-18T00:54:44.759Z,9.37
2018-02-18T00:57:12.267Z,9.77
2018-02-18T00:59:39.796Z,9.60
2018-02-18T01:02:07.307Z,9.93
2018-02-18T01:04:34.834Z,9.73
2018-02-18T01:07:03.107Z,9.80
2018-02-18T01:09:31.397Z,9.20
2018-02-18T01:11:59.676Z,9.27
2018-02-18T01:14:27.973Z,10.20
2018-02-18T01:16:55.483Z,10.50
2018-02-18T01:19:23.011Z,9.00
2018-02-18T01:21:50.528Z,9.80
2018-02-18T01:24:18.811Z,8.93
2018-02-18T01:26:46.320Z,9.77
2018-02-18T01:29:13.836Z,8.87
2018-02-18T01:31:41.352Z,8.70
2018-02-18T01:34:08.874Z,10.23
2018-02-18T01:36:36.404Z,9.63
2018-02-18T01:39:04.722Z,10.47
2018-02-18T01:41:32.248Z,10.67
2018-02-18T01:44:00.520Z,9.90
2018-02-18T01:46:28.804Z,9.13
2018-02-18T01:48:57.091Z,10.70
2018-02-18T01:51:24.635Z,9.20
2018-02-18T01:53:52.911Z,9.30
2018-02-18T01:56:21.211Z,9.43
2018-02-18T01:58:48.724Z,8.77
2018-02-18T02:01:16.269Z,10.57
2018-02-18T02:03:43.780Z,10.07
2018-02-18T02:06:11.288Z,9.77
2018-02-18T02:08:38.821Z,9.17
2018-02-18T02:11:06.328Z,9.60
2018-02-18T02:13:33.850Z,9.00
2018-02-18T02:16:01.356Z,9.33
2018-02-18T02:18:29.652Z,10.30
2018-02-18T02:20:57.918Z,8.93
2018-02-18T02:23:26.203Z,9.03
2018-02-18T02:25:54.481Z,9.90
2018-02-18T02:28:22.771Z,9.10
2018-02-18T02:30:50.276Z,9.77
2018-02-18T02:33:17.816Z,8.20
2018-02-18T02:35:45.325Z,8.57
2018-02-18T02:38:13.604Z,8.33
2018-02-18T02:40:41.891Z,8.77
2018-02-18T02:43:10.162Z,8.80
2018-02-18T02:45:38.454Z,9.23
2018-02-18T02:48:05.960Z,8.67
2018-02-18T02:50:33.484Z,7.73
2018-02-18T02:53:00.992Z,9.83
2018-02-18T02:55:28.524Z,8.00
2018-02-18T02:57:56.036Z,9.07
2018-02-18T03:00:24.330Z,7.97
2018-02-18T03:02:51.839Z,8.17
2018-02-18T03:05:19.384Z,7.57
2018-02-18T03:07:46.892Z,8.07
2018-02-18T03:10:15.173Z,8.97
2018-02-18T03:12:43.468Z,8.80
2018-02-18T03:15:10.986Z,7.87
2018-02-18T03:17:38.495Z,8.83
2018-02-18T03:20:06.011Z,8.87
2018-02-18T03:22:34.300Z,8.10
2018-02-18T03:25:02.584Z,8.30
2018-02-18T03:27:30.884Z,8.30
2018-02-18T03:29:58.379Z,8.53
2018-02-18T03:32:25.921Z,9.10
2018-02-18T03:34:54.196Z,8.70
2018-02-18T03:37:21.699Z,8.60
2018-02-18T03:39:49.222Z,8.30
2018-02-18T03:42:16.755Z,8.60
2018-02-18T03:44:44.280Z,8.90
2018-02-18T03:47:11.794Z,8.43
2018-02-18T03:49:39.325Z,8.60
2018-02-18T03:52:07.600Z,8.20
2018-02-18T03:54:35.884Z,8.43
2018-02-18T03:57:04.164Z,9.13
2018-02-18T03:59:32.451Z,8.60
2018-02-18T04:01:59.965Z,9.40
2018-02-18T04:04:27.495Z,9.20
2018-02-18T04:06:55.007Z,9.60
2018-02-18T04:09:23.295Z,9.87
2018-02-18T04:11:51.571Z,9.77
2018-02-18T04:14:19.853Z,8.70
2018-02-18T04:16:48.139Z,9.67
2018-02-18T04:19:15.648Z,9.70
2018-02-18T04:21:43.171Z,9.47
2018-02-18T04:24:10.684Z,10.60
2018-02-18T04:26:38.224Z,9.67
2018-02-18T04:29:05.740Z,11.00
2018-02-18T04:31:33.276Z,10.20
2018-02-18T04:34:01.552Z,9.97
2018-02-18T04:36:29.848Z,11.23
2018-02-18T04:38:57.364Z,10.10
2018-02-18T04:41:24.932Z,10.70
2018-02-18T04:43:52.450Z,11.70
2018-02-18T04:46:19.971Z,9.93
2018-02-18T04:48:48.260Z,11.40
2018-02-18T04:51:16.531Z,12.10
2018-02-18T04:53:44.917Z,11.67
2018-02-18T04:56:13.208Z,11.03
2018-02-18T04:58:40.743Z,11.33
2018-02-18T05:01:09.039Z,11.20
2018-02-18T05:03:37.334Z,10.70
2018-02-18T05:06:04.872Z,11.27
2018-02-18T05:08:33.158Z,11.67
2018-02-18T05:11:00.679Z,11.33
2018-02-18T05:13:28.264Z,11.83
2018-02-18T05:15:56.572Z,10.27
2018-02-18T05:18:24.141Z,11.57
2018-02-18T05:20:51.667Z,11.90
2018-02-18T05:23:19.943Z,12.00
2018-02-18T05:25:48.258Z,12.30
2018-02-18T05:28:15.778Z,12.70
2018-02-18T05:30:44.072Z,12.87
2018-02-18T05:33:11.587Z,13.00
2018-02-18T05:35:39.216Z,12.50
2018-02-18T05:38:06.734Z,12.90
2018-02-18T05:40:35.034Z,12.20
2018-02-18T05:43:02.569Z,12.70
2018-02-18T05:45:30.865Z,12.50
2018-02-18T05:47:59.182Z,13.37
2018-02-18T05:50:26.732Z,12.60
2018-02-18T05:52:54.332Z,12.37
2018-02-18T05:55:21.905Z,12.00
2018-02-18T05:57:50.187Z,12.70
2018-02-18T06:00:18.464Z,13.87
2018-02-18T06:02:46.764Z,12.00
2018-02-18T06:05:14.307Z,12.57
2018-02-18T06:07:41.854Z,12.27
2018-02-18T06:10:09.364Z,12.77
2018-02-18T06:12:36.891Z,13.23
2018-02-18T06:15:05.194Z,13.77
2018-02-18T06:17:32.764Z,12.50
2018-02-18T06:20:00.325Z,13.00
2018-02-18T06:22:27.851Z,12.57
2018-02-18T06:24:56.128Z,12.90
2018-02-18T06:27:24.489Z,11.87
2018-02-18T06:29:52.000Z,12.33
2018-02-18T06:32:19.536Z,12.07
2018-02-18T06:34:47.838Z,12.37
2018-02-18T06:37:15.360Z,13.60
2018-02-18T06:39:43.676Z,12.83
2018-02-18T06:42:11.195Z,13.03
2018-02-18T06:44:39.489Z,12.50
2018-02-18T06:47:07.040Z,15.10
2018-02-18T06:49:35.324Z,13.50
2018-02-18T06:52:03.600Z,14.33
2018-02-18T06:54:31.925Z,13.27
2018-02-18T06:56:59.440Z,13.77
2018-02-18T06:59:26.981Z,14.00
2018-02-18T07:01:54.508Z,13.47
2018-02-18T07:04:22.047Z,12.90
2018-02-18T07:06:50.338Z,13.10
2018-02-18T07:09:17.870Z,14.40
2018-02-18T07:11:45.399Z,14.53
2018-02-18T07:14:12.940Z,13.77
2018-02-18T07:16:40.533Z,13.50
2018-02-18T07:19:08.071Z,12.50
2018-02-18T07:21:35.624Z,13.03
2018-02-18T07:24:03.136Z,12.40
2018-02-18T07:26:31.456Z,12.70
2018-02-18T07:28:58.973Z,12.10
2018-02-18T07:31:27.304Z,13.17
2018-02-18T07:33:54.840Z,12.43
2018-02-18T07:36:22.399Z,13.20
2018-02-18T07:38:49.948Z,12.07
2018-02-18T07:41:18.270Z,12.87
2018-02-18T07:43:45.815Z,12.40
2018-02-18T07:46:13.355Z,12.47
2018-02-18T07:48:40.904Z,12.03
2018-02-18T07:51:09.210Z,12.20
2018-02-18T07:53:36.753Z,12.50
2018-02-18T07:56:04.272Z,12.20
2018-02-18T07:58:31.803Z,10.83
2018-02-18T08:00:59.323Z,12.07
2018-02-18T08:03:27.635Z,12.97
2018-02-18T08:05:55.212Z,11.80
2018-02-18T08:08:22.744Z,12.37
2018-02-18T08:10:50.295Z,11.30
2018-02-18T08:13:17.838Z,11.50
2018-02-18T08:15:46.140Z,10.40
2018-02-18T08:18:13.675Z,10.50
2018-02-18T08:20:41.964Z,10.50
2018-02-18T08:23:09.493Z,12.20
2018-02-18T08:25:37.036Z,11.47
2018-02-18T08:28:04.554Z,11.17
2018-02-18T08:30:32.108Z,9.67
2018-02-18T08:32:59.656Z,11.20
2018-02-18T08:35:27.999Z,10.53
2018-02-18T08:37:55.525Z,9.90
2018-02-18T08:40:23.091Z,10.10
2018-02-18T08:42:50.608Z,9.70
2018-02-18T08:45:18.932Z,9.87
2018-02-18T08:47:46.472Z,9.50
2018-02-18T08:50:13.987Z,9.10
2018-02-18T08:52:41.536Z,8.83
2018-02-18T08:55:09.048Z,8.33
2018-02-18T08:57:37.355Z,8.43
2018-02-18T09:00:04.868Z,10.10
2018-02-18T09:02:33.231Z,8.87
2018-02-18T09:05:00.734Z,8.43
2018-02-18T09:07:28.292Z,8.20
2018-02-18T09:09:55.804Z,7.97
2018-02-18T09:12:23.380Z,8.90
2018-02-18T09:14:51.707Z,8.30
2018-02-18T09:17:19.299Z,8.07
2018-02-18T09:19:46.840Z,8.03
2018-02-18T09:22:14.365Z,7.60
2018-02-18T09:24:41.897Z,7.90
2018-02-18T09:27:09.410Z,7.50
2018-02-18T09:29:36.956Z,7.33
2018-02-18T09:32:04.556Z,8.37
2018-02-18T09:34:32.117Z,7.47
2018-02-18T09:36:59.650Z,7.47
2018-02-18T09:39:27.188Z,7.70
2018-02-18T09:41:55.468Z,7.43
2018-02-18T09:44:23.033Z,7.83
2018-02-18T09:46:51.346Z,7.40
2018-02-18T09:49:18.875Z,7.10
2018-02-18T09:51:46.412Z,7.37
2018-02-18T09:54:13.917Z,7.20
2018-02-18T09:56:41.458Z,7.50
2018-02-18T09:59:09.728Z,7.30
2018-02-18T10:01:37.283Z,6.43
2018-02-18T10:04:05.607Z,6.60
2018-02-18T10:06:33.170Z,7.23
2018-02-18T10:09:00.696Z,6.50
2018-02-18T10:11:28.249Z,7.50
2018-02-18T10:13:55.811Z,6.70
2018-02-18T10:16:24.122Z,6.50
2018-02-18T10:18:51.624Z,6.50
2018-02-18T10:21:19.950Z,6.73
2018-02-18T10:23:47.475Z,5.53
2018-02-18T10:26:15.771Z,5.80
2018-02-18T10:28:43.299Z,5.00
2018-02-18T10:31:10.823Z,5.93
2018-02-18T10:33:38.370Z,5.73
2018-02-18T10:36:05.877Z,5.87
2018-02-18T10:38:33.447Z,6.13
2018-02-18T10:41:01.763Z,5.57
2018-02-18T10:43:29.341Z,5.90
2018-02-18T10:45:56.873Z,5.87
2018-02-18T10:48:24.434Z,6.00
2018-02-18T10:50:51.976Z,5.40
2018-02-18T10:53:20.267Z,6.43
2018-02-18T10:55:47.784Z,5.60
2018-02-18T10:58:15.340Z,6.07
2018-02-18T11:00:42.868Z,6.07
2018-02-18T11:03:10.434Z,5.33
2018-02-18T11:05:37.948Z,5.00
2018-02-18T11:08:06.277Z,5.67
2018-02-18T11:10:33.808Z,5.70
2018-02-18T11:13:01.312Z,5.00
2018-02-18T11:15:28.874Z,5.03
2018-02-18T11:17:56.408Z,5.20
2018-02-18T11:20:23.957Z,5.70
2018-02-18T11:22:51.473Z,4.93
2018-02-18T11:25:19.020Z,4.90
2018-02-18T11:27:46.550Z,4.30
2018-02-18T11:30:14.076Z,4.47
2018-02-18T11:32:41.612Z,5.10
2018-02-18T11:35:09.148Z,5.10
2018-02-18T11:37:36.702Z,4.30
2018-02-18T11:40:04.223Z,4.20
2018-02-18T11:42:32.520Z,4.67
2018-02-18T11:45:00.065Z,4.80
2018-02-18T11:47:27.592Z,5.03
2018-02-18T11:49:55.139Z,5.23
2018-02-18T11:52:22.667Z,4.23
2018-02-18T11:54:50.240Z,4.40
2018-02-18T11:57:17.755Z,4.60
2018-02-18T11:59:46.043Z,4.87
2018-02-18T12:02:14.346Z,4.60
2018-02-18T12:04:41.866Z,5.23
2018-02-18T12:07:10.188Z,4.30
2018-02-18T12:09:37.716Z,3.93
2018-02-18T12:12:06.031Z,4.37
2018-02-18T12:14:33.548Z,4.60
2018-02-18T12:17:01.844Z,4.17
2018-02-18T12:19:29.375Z,5.20
2018-02-18T12:21:56.899Z,4.00
2018-02-18T12:24:24.420Z,3.67
2018-02-18T12:26:51.964Z,4.23
2018-02-18T12:29:20.248Z,4.00
2018-02-18T12:31:48.595Z,3.97
2018-02-18T12:34:16.161Z,4.50
2018-02-18T12:36:43.679Z,4.13
2018-02-18T12:39:11.223Z,4.00
2018-02-18T12:41:40.342Z,4.60
2018-02-18T12:44:07.869Z,3.70
2018-02-18T12:46:36.144Z,4.57
2018-02-18T12:49:04.442Z,3.70
2018-02-18T12:51:31.979Z,4.00
2018-02-18T12:54:00.279Z,3.53
2018-02-18T12:56:27.800Z,3.73
2018-02-18T12:58:55.355Z,3.67
2018-02-18T13:01:22.905Z,3.60
2018-02-18T13:03:50.448Z,4.40
2018-02-18T13:06:17.990Z,2.83
2018-02-18T13:08:45.539Z,3.47
2018-02-18T13:11:13.055Z,3.60
2018-02-18T13:13:40.575Z,3.67
2018-02-18T13:16:08.113Z,4.50
2018-02-18T13:18:35.627Z,4.17
2018-02-18T13:21:03.179Z,4.40
2018-02-18T13:23:30.724Z,4.13
2018-02-18T13:25:58.255Z,3.77
2018-02-18T13:28:25.782Z,3.57
2018-02-18T13:30:53.309Z,3.13
2018-02-18T13:33:20.835Z,4.40
2018-02-18T13:35:48.435Z,3.60
2018-02-18T13:38:15.957Z,4.77
2018-02-18T13:40:43.503Z,3.37
2018-02-18T13:43:11.780Z,3.60
2018-02-18T13:45:40.064Z,3.53
2018-02-18T13:48:07.580Z,3.43
2018-02-18T13:50:35.095Z,3.90
2018-02-18T13:53:02.660Z,3.90
2018-02-18T13:55:30.180Z,3.87
2018-02-18T13:57:57.710Z,3.27
2018-02-18T14:00:25.231Z,4.17
2018-02-18T14:02:52.782Z,3.53
2018-02-18T14:05:21.074Z,3.57
2018-02-18T14:07:48.604Z,4.10
2018-02-18T14:10:16.147Z,3.40
2018-02-18T14:12:43.693Z,4.23
2018-02-18T14:15:11.220Z,4.17
2018-02-18T14:17:38.751Z,3.57
2018-02-18T14:20:06.268Z,3.57
2018-02-18T14:22:33.959Z,4.13
2018-02-18T14:25:01.484Z,3.20
2018-02-18T14:27:29.009Z,3.53
2018-02-18T14:29:57.501Z,3.77
2018-02-18T14:32:25.788Z,3.13
2018-02-18T14:34:53.307Z,3.50
2018-02-18T14:37:20.827Z,4.13
2018-02-18T14:39:48.352Z,3.77
2018-02-18T14:42:28.323Z,3.93
2018-02-18T14:45:07.644Z,3.97
2018-02-18T14:47:47.583Z,3.40
2018-02-18T14:50:27.668Z,3.10
2018-02-18T14:53:06.839Z,3.93
2018-02-18T14:55:46.020Z,3.20
2018-02-18T14:58:14.357Z,3.83
2018-02-18T15:00:41.892Z,3.73
2018-02-18T15:03:09.404Z,3.80
2018-02-18T15:05:37.707Z,3.77
2018-02-18T15:08:05.260Z,3.90
2018-02-18T15:10:32.820Z,4.17
2018-02-18T15:13:00.359Z,3.73
2018-02-18T15:15:28.655Z,4.40
2018-02-18T15:17:56.937Z,4.10
2018-02-18T15:20:24.474Z,3.30
2018-02-18T15:22:52.767Z,3.77
2018-02-18T15:25:21.095Z,3.03
2018-02-18T15:27:48.620Z,4.70
2018-02-18T15:30:16.897Z,3.70
2018-02-18T15:32:45.207Z,3.30
2018-02-18T15:35:12.736Z,3.03
2018-02-18T15:37:41.049Z,4.10
2018-02-18T15:40:08.598Z,3.83
2018-02-18T15:42:36.138Z,3.43
2018-02-18T15:45:04.446Z,3.80
2018-02-18T15:47:31.984Z,3.53
2018-02-18T15:49:59.522Z,3.27
2018-02-18T15:52:27.823Z,4.03
2018-02-18T15:54:55.343Z,3.37
2018-02-18T15:57:22.945Z,3.57
2018-02-18T15:59:50.499Z,4.00
2018-02-18T16:02:18.787Z,3.83
2018-02-18T16:04:46.300Z,3.83
2018-02-18T16:07:13.837Z,4.00
2018-02-18T16:09:41.358Z,3.50
2018-02-18T16:12:09.660Z,4.37
2018-02-18T16:14:37.172Z,4.77
2018-02-18T16:17:05.493Z,4.17
2018-02-18T16:19:33.038Z,3.70
2018-02-18T16:22:00.555Z,4.03
2018-02-18T16:24:28.091Z,3.90
2018-02-18T16:26:55.595Z,3.40
2018-02-18T16:29:23.900Z,4.83
2018-02-18T16:31:51.425Z,4.10
2018-02-18T16:34:18.952Z,3.73
2018-02-18T16:36:46.463Z,3.97
2018-02-18T16:39:14.755Z,4.17
2018-02-18T16:41:42.260Z,3.90
2018-02-18T16:44:09.949Z,3.80
2018-02-18T16:46:37.459Z,3.27
2018-02-18T16:49:05.035Z,4.40
2018-02-18T16:51:32.627Z,4.10
2018-02-18T16:54:00.177Z,3.73
2018-02-18T16:56:27.684Z,5.00
2018-02-18T16:58:55.195Z,3.60
2018-02-18T17:01:22.717Z,4.00
2018-02-18T17:03:50.224Z,3.87
2018-02-18T17:06:17.774Z,4.30
2018-02-18T17:08:45.298Z,4.67
2018-02-18T17:11:12.860Z,4.60
2018-02-18T17:13:40.370Z,5.00
2018-02-18T17:16:08.677Z,4.87
2018-02-18T17:18:36.200Z,3.63
2018-02-18T17:21:03.774Z,4.73
2018-02-18T17:23:32.059Z,4.30
2018-02-18T17:26:00.373Z,4.20
2018-02-18T17:28:27.888Z,4.37
2018-02-18T17:30:56.180Z,4.27
2018-02-18T17:33:24.456Z,4.33
2018-02-18T17:35:52.748Z,4.77
2018-02-18T17:38:20.267Z,4.07
2018-02-18T17:40:47.784Z,5.13
2018-02-18T17:43:15.288Z,4.40
2018-02-18T17:45:42.827Z,5.40
2018-02-18T17:48:10.331Z,5.33
2018-02-18T17:50:38.599Z,4.17
2018-02-18T17:53:06.891Z,3.90
2018-02-18T17:55:35.163Z,5.20
2018-02-18T17:58:03.504Z,4.27
2018-02-18T18:03:04.804Z,4.73
2018-02-18T18:05:33.072Z,4.50
2018-02-18T18:08:00.591Z,4.23
2018-02-18T18:10:28.108Z,4.60
2018-02-18T18:12:56.404Z,4.87
2018-02-18T18:15:25.267Z,4.57
2018-02-18T18:17:54.150Z,4.20
2018-02-18T18:20:23.021Z,5.20
2018-02-18T18:22:51.912Z,4.60
2018-02-18T18:25:20.783Z,5.00
2018-02-18T18:27:49.659Z,5.13
2018-02-18T18:30:18.527Z,4.60
2018-02-18T18:32:47.411Z,4.43
2018-02-18T18:35:16.297Z,5.30
2018-02-18T18:37:45.150Z,5.10
2018-02-18T18:40:14.039Z,4.30
2018-02-18T18:42:42.926Z,5.40
2018-02-18T18:45:11.961Z,5.00
2018-02-18T18:47:40.844Z,5.07
2018-02-18T18:50:09.716Z,5.47
2018-02-18T18:52:38.562Z,5.40
2018-02-18T18:55:07.439Z,4.90
2018-02-18T18:57:36.311Z,4.47
2018-02-18T19:00:05.183Z,5.50
2018-02-18T19:02:34.030Z,5.07
2018-02-18T19:05:02.921Z,5.90
2018-02-18T19:07:31.798Z,4.70
2018-02-18T19:10:00.874Z,5.70
2018-02-18T19:12:29.767Z,4.80
2018-02-18T19:14:58.635Z,5.30
2018-02-18T19:17:27.483Z,5.30
2018-02-18T19:19:56.363Z,5.20
2018-02-18T19:22:25.222Z,5.97
2018-02-18T19:24:54.087Z,5.53
2018-02-18T19:27:22.965Z,5.23
2018-02-18T19:29:51.853Z,5.13
2018-02-18T19:32:20.792Z,6.00
2018-02-18T19:34:49.656Z,5.07
2018-02-18T19:37:18.575Z,5.40
2018-02-18T19:39:47.449Z,6.20
2018-02-18T19:42:16.324Z,5.53
2018-02-18T19:44:45.186Z,5.30
2018-02-18T19:47:14.066Z,5.67
2018-02-18T19:49:42.935Z,5.73
2018-02-18T19:52:11.803Z,5.40
2018-02-18T19:54:40.689Z,6.23
2018-02-18T19:57:09.554Z,5.73
2018-02-18T19:59:38.446Z,6.33
2018-02-18T20:02:07.335Z,6.23
2018-02-18T20:04:36.192Z,5.80
2018-02-18T20:07:05.063Z,6.07
2018-02-18T20:09:33.913Z,6.23
2018-02-18T20:12:02.799Z,5.40
2018-02-18T20:14:31.651Z,6.13
2018-02-18T20:17:00.529Z,6.70
2018-02-18T20:19:29.379Z,7.10
2018-02-18T20:21:58.251Z,6.53
2018-02-18T20:24:27.098Z,5.73
2018-02-18T20:26:56.008Z,7.17
2018-02-18T20:29:24.858Z,6.50
2018-02-18T20:31:53.704Z,6.50
2018-02-18T20:34:22.575Z,6.90
2018-02-18T20:36:51.424Z,8.20
2018-02-18T20:39:20.304Z,7.63
2018-02-18T20:41:49.164Z,7.87
2018-02-18T20:44:18.047Z,7.40
2018-02-18T20:46:46.907Z,7.70
2018-02-18T20:49:15.770Z,7.60
2018-02-18T20:51:44.623Z,8.10
2018-02-18T20:54:13.528Z,7.10
2018-02-18T20:56:42.380Z,7.97
2018-02-18T20:59:11.256Z,7.40
2018-02-18T21:01:40.156Z,8.50
2018-02-18T21:04:09.023Z,8.10
2018-02-18T21:06:37.883Z,7.87
2018-02-18T21:09:06.764Z,8.43
2018-02-18T21:11:35.634Z,8.47
2018-02-18T21:14:04.569Z,9.00
2018-02-18T21:16:33.439Z,8.23
2018-02-18T21:19:02.298Z,8.67
2018-02-18T21:21:31.163Z,8.97
2018-02-18T21:24:00.039Z,8.00
2018-02-18T21:26:28.915Z,8.73
2018-02-18T21:28:57.762Z,9.87
2018-02-18T21:31:26.648Z,9.00
2018-02-18T21:33:55.511Z,10.27
2018-02-18T21:36:24.443Z,9.30
2018-02-18T21:38:53.303Z,10.73
2018-02-18T21:41:22.176Z,8.77
2018-02-18T21:43:51.040Z,9.93
2018-02-18T21:46:19.939Z,9.67
2018-02-18T21:48:48.817Z,10.60
2018-02-18T21:51:17.674Z,9.90
2018-02-18T21:53:46.606Z,11.30
2018-02-18T21:56:15.470Z,11.33
2018-02-18T21:58:44.344Z,12.30
2018-02-18T22:01:13.219Z,12.63
2018-02-18T22:03:42.100Z,11.20
2018-02-18T22:06:10.962Z,12.67
2018-02-18T22:08:39.853Z,11.80
2018-02-18T22:11:08.773Z,12.20
2018-02-18T22:13:37.647Z,11.43
2018-02-18T22:16:06.507Z,12.27
2018-02-18T22:18:35.386Z,12.40
2018-02-18T22:21:04.250Z,13.10
2018-02-18T22:23:33.151Z,12.37
2018-02-18T22:26:02.012Z,12.70
2018-02-18T22:28:30.899Z,12.63
2018-02-18T22:30:59.778Z,11.80
2018-02-18T22:33:28.639Z,12.77
2018-02-18T22:35:57.560Z,12.90
2018-02-18T22:38:26.427Z,12.57
2018-02-18T22:40:55.316Z,14.10
2018-02-18T22:43:24.179Z,12.73
2018-02-18T22:45:53.070Z,12.90
2018-02-18T22:48:21.939Z,13.20
2018-02-18T22:50:50.812Z,13.30
2018-02-18T22:53:19.675Z,11.87
2018-02-18T22:55:48.546Z,12.77
2018-02-18T22:58:17.403Z,13.47
2018-02-18T23:00:46.312Z,12.93
2018-02-18T23:03:15.171Z,13.47
2018-02-18T23:05:49.683Z,12.77
2018-02-18T23:08:18.550Z,13.50
2018-02-18T23:10:47.426Z,13.33
2018-02-18T23:13:16.299Z,12.90
2018-02-18T23:15:45.189Z,13.20
2018-02-18T23:18:14.043Z,11.97
2018-02-18T23:20:48.813Z,12.70
2018-02-18T23:23:17.670Z,12.40
2018-02-18T23:25:46.558Z,12.23
2018-02-18T23:28:15.433Z,13.43
2018-02-18T23:30:44.300Z,14.40
2018-02-18T23:33:13.173Z,12.70
2018-02-18T23:35:42.032Z,13.70
2018-02-18T23:38:10.909Z,13.10
2018-02-18T23:40:39.776Z,12.70
2018-02-18T23:43:08.652Z,11.23
2018-02-18T23:45:37.516Z,12.40
2018-02-18T23:48:06.403Z,12.13
2018-02-18T23:50:35.282Z,11.60
2018-02-18T23:53:04.159Z,13.20
2018-02-18T23:55:33.022Z,12.57
2018-02-18T23:58:01.903Z,11.90
